Time;durP1;ratioP1;P1;durP2;ratioP2;P2;SDS_P1;SDS_P2;PMS_P1;PMS_P2;Temp;Humidity;BMP_temperature;BMP_pressure;BME280_temperature;BME280_humidity;BME280_pressure;Samples;Min_cycle;Max_cycle;Signal;HPM_P1;HPM_P2
2023/07/12 00:00:14;;;;;;;;;;;27.30;45.10;;;;;;1562838;74;1978;-60
2023/07/12 00:02:16;;;;;;;;;;;27.20;45.20;;;;;;1550419;74;2008;-60
2023/07/12 00:04:18;;;;;;;;;;;27.20;45.10;;;;;;1581142;74;706;-57
2023/07/12 00:06:21;;;;;;;;;;;27.20;45.10;;;;;;1560937;74;715;-57
2023/07/12 00:08:23;;;;;;;;;;;27.20;45.20;;;;;;1572618;74;1101;-60
2023/07/12 00:10:27;;;;;;;;;;;27.20;45.20;;;;;;1576229;74;1546;-60
2023/07/12 00:12:29;;;;;;;;;;;27.20;45.10;;;;;;1560054;74;1940;-58
2023/07/12 00:14:31;;;;;;;;;;;27.30;44.90;;;;;;1558495;74;682;-58
2023/07/12 00:16:37;;;;;;;;;;;27.30;45.00;;;;;;1564051;74;768;-56
2023/07/12 00:18:39;;;;;;;;;;;27.30;45.00;;;;;;1553273;74;1150;-57
2023/07/12 00:20:41;;;;;;;;;;;27.30;45.00;;;;;;1555815;74;1947;-57
2023/07/12 00:22:43;;;;;;;;;;;27.30;45.10;;;;;;1559852;74;728;-60
2023/07/12 00:24:45;;;;;;;;;;;27.30;45.00;;;;;;1576394;74;1530;-60
2023/07/12 00:26:47;;;;;;;;;;;27.30;45.00;;;;;;1566563;74;789;-57
2023/07/12 00:28:49;;;;;;;;;;;27.30;45.00;;;;;;1571615;74;1153;-60
2023/07/12 00:30:51;;;;;;;;;;;27.30;44.90;;;;;;1558493;74;717;-57
2023/07/12 00:32:53;;;;;;;;;;;27.30;45.00;;;;;;1555411;74;739;-60
2023/07/12 00:34:55;;;;;;;;;;;27.30;44.90;;;;;;1558847;74;730;-60
2023/07/12 00:36:57;;;;;;;;;;;27.30;44.90;;;;;;1568470;74;724;-57
2023/07/12 00:38:59;;;;;;;;;;;27.30;44.80;;;;;;1561684;74;1571;-59
2023/07/12 00:41:09;;;;;;;;;;;27.30;44.80;;;;;;1563558;74;1939;-57
2023/07/12 00:43:21;;;;;;;;;;;27.30;44.80;;;;;;1558917;74;718;-54
2023/07/12 00:45:23;;;;;;;;;;;27.30;44.80;;;;;;1570149;74;791;-56
2023/07/12 00:47:25;;;;;;;;;;;27.30;44.90;;;;;;1565472;74;1060;-55
2023/07/12 00:49:27;;;;;;;;;;;27.30;44.80;;;;;;1570988;74;1212;-57
2023/07/12 00:51:30;;;;;;;;;;;27.30;44.90;;;;;;1574893;75;789;-60
2023/07/12 00:53:32;;;;;;;;;;;27.20;45.20;;;;;;1567003;74;1476;-58
2023/07/12 00:55:52;;;;;;;;;;;27.10;45.20;;;;;;1568675;75;667;-58
2023/07/12 00:57:55;;;;;;;;;;;27.10;45.20;;;;;;1572380;74;722;-57
2023/07/12 01:00:10;;;;;;;;;;;27.10;45.30;;;;;;1573790;74;1073;-55
2023/07/12 01:02:11;;;;;;;;;;;27.10;45.50;;;;;;1570381;74;1933;-58
2023/07/12 01:04:17;;;;;;;;;;;27.10;45.40;;;;;;1570576;74;714;-58
2023/07/12 01:06:20;;;;;;;;;;;27.10;45.50;;;;;;1570683;74;1552;-58
2023/07/12 01:08:22;;;;;;;;;;;27.10;45.30;;;;;;1572796;74;1087;-57
2023/07/12 01:10:24;;;;;;;;;;;27.20;45.40;;;;;;1563894;74;802;-57
2023/07/12 01:12:25;;;;;;;;;;;27.10;45.40;;;;;;1570020;74;702;-57
2023/07/12 01:14:27;;;;;;;;;;;27.10;45.40;;;;;;1566624;74;660;-57
2023/07/12 01:16:30;;;;;;;;;;;27.10;45.20;;;;;;1577275;74;764;-58
2023/07/12 01:18:31;;;;;;;;;;;27.10;45.20;;;;;;1570154;75;1180;-55
2023/07/12 01:20:37;;;;;;;;;;;27.10;45.20;;;;;;1569486;74;1938;-59
2023/07/12 01:22:39;;;;;;;;;;;27.10;45.30;;;;;;1569476;74;733;-57
2023/07/12 01:24:41;;;;;;;;;;;27.00;45.40;;;;;;1568040;75;745;-60
2023/07/12 01:26:50;;;;;;;;;;;27.10;45.40;;;;;;1586217;74;718;-58
2023/07/12 01:28:53;;;;;;;;;;;27.20;45.20;;;;;;1574816;74;1153;-59
2023/07/12 01:30:55;;;;;;;;;;;27.20;45.30;;;;;;1573341;74;1819;-57
2023/07/12 01:32:57;;;;;;;;;;;27.20;45.20;;;;;;1575138;74;762;-56
2023/07/12 01:34:59;;;;;;;;;;;27.20;45.30;;;;;;1561428;74;1531;-55
2023/07/12 01:37:04;;;;;;;;;;;27.20;45.20;;;;;;1561112;74;703;-57
2023/07/12 01:39:04;;;;;;;;;;;27.20;45.30;;;;;;1567945;75;1505;-59
2023/07/12 01:41:06;;;;;;;;;;;27.20;45.20;;;;;;1562414;74;1938;-57
2023/07/12 01:43:08;;;;;;;;;;;27.20;45.20;;;;;;1570185;74;780;-57
2023/07/12 01:45:10;;;;;;;;;;;27.20;45.20;;;;;;1538551;76;744;-58
2023/07/12 01:47:12;;;;;;;;;;;27.30;45.30;;;;;;1526360;77;1064;-55
2023/07/12 01:49:14;;;;;;;;;;;27.20;45.20;;;;;;1576343;74;1525;-57
2023/07/12 01:51:16;;;;;;;;;;;27.20;45.20;;;;;;1565447;74;729;-57
2023/07/12 01:53:18;;;;;;;;;;;27.20;45.30;;;;;;1566195;74;716;-56
2023/07/12 01:55:20;;;;;;;;;;;27.20;45.20;;;;;;1569514;75;674;-57
2023/07/12 01:57:22;;;;;;;;;;;27.20;45.10;;;;;;1569042;75;715;-56
2023/07/12 01:59:24;;;;;;;;;;;27.10;45.00;;;;;;1562016;74;1137;-59
2023/07/12 02:01:26;;;;;;;;;;;27.10;45.00;;;;;;1567345;74;1943;-57
2023/07/12 02:03:28;;;;;;;;;;;27.10;45.20;;;;;;1568667;74;1572;-58
2023/07/12 02:05:30;;;;;;;;;;;27.10;45.10;;;;;;1565218;75;734;-57
2023/07/12 02:07:32;;;;;;;;;;;27.20;45.10;;;;;;1560816;75;738;-57
2023/07/12 02:09:38;;;;;;;;;;;27.10;45.00;;;;;;1564571;74;1121;-56
2023/07/12 02:11:40;;;;;;;;;;;27.10;45.00;;;;;;1568975;75;764;-57
2023/07/12 02:13:42;;;;;;;;;;;27.10;45.00;;;;;;1563171;75;742;-58
2023/07/12 02:15:44;;;;;;;;;;;27.10;45.10;;;;;;1580170;75;725;-56
2023/07/12 02:17:46;;;;;;;;;;;27.10;45.00;;;;;;1572059;75;1380;-58
2023/07/12 02:19:48;;;;;;;;;;;27.20;45.00;;;;;;1576504;75;1101;-60
2023/07/12 02:21:50;;;;;;;;;;;27.10;45.10;;;;;;1566061;75;1907;-57
2023/07/12 02:23:53;;;;;;;;;;;27.20;45.00;;;;;;1562361;74;714;-55
2023/07/12 02:25:55;;;;;;;;;;;27.20;45.30;;;;;;1569081;74;988;-57
2023/07/12 02:27:57;;;;;;;;;;;27.10;45.10;;;;;;1571283;75;764;-56
2023/07/12 02:29:59;;;;;;;;;;;27.10;45.00;;;;;;1570104;74;1147;-56
2023/07/12 02:32:01;;;;;;;;;;;27.10;45.20;;;;;;1565798;74;1673;-58
2023/07/12 02:34:03;;;;;;;;;;;27.10;45.20;;;;;;1574030;74;829;-58
2023/07/12 02:36:05;;;;;;;;;;;27.10;45.10;;;;;;1561495;75;801;-57
2023/07/12 02:38:07;;;;;;;;;;;27.10;45.10;;;;;;1581656;75;785;-57
2023/07/12 02:40:09;;;;;;;;;;;27.20;45.00;;;;;;1570384;74;1120;-56
2023/07/12 02:42:11;;;;;;;;;;;27.20;45.00;;;;;;1569980;74;1937;-58
2023/07/12 02:44:13;;;;;;;;;;;27.20;45.00;;;;;;1564204;74;723;-57
2023/07/12 02:46:15;;;;;;;;;;;27.20;44.90;;;;;;1566934;74;1675;-60
2023/07/12 02:48:17;;;;;;;;;;;27.10;45.20;;;;;;1565996;75;1164;-58
2023/07/12 02:50:19;;;;;;;;;;;27.10;45.10;;;;;;1556469;74;765;-57
2023/07/12 02:52:21;;;;;;;;;;;27.10;45.20;;;;;;1557697;74;752;-56
2023/07/12 02:54:23;;;;;;;;;;;27.10;45.30;;;;;;1557167;74;706;-58
2023/07/12 02:56:25;;;;;;;;;;;27.10;45.00;;;;;;1569831;74;782;-57
2023/07/12 02:58:27;;;;;;;;;;;27.10;45.00;;;;;;1559715;74;1497;-60
2023/07/12 03:00:28;;;;;;;;;;;27.10;45.00;;;;;;1561620;74;765;-58
2023/07/12 03:02:30;;;;;;;;;;;27.10;44.90;;;;;;1557623;74;1948;-59
2023/07/12 03:04:32;;;;;;;;;;;27.10;44.90;;;;;;1564887;74;712;-60
2023/07/12 03:06:34;;;;;;;;;;;27.10;45.30;;;;;;1556920;74;718;-57
2023/07/12 03:08:36;;;;;;;;;;;27.10;44.90;;;;;;1567886;74;1157;-56
2023/07/12 03:10:38;;;;;;;;;;;27.10;45.10;;;;;;1566853;74;803;-59
2023/07/12 03:12:40;;;;;;;;;;;27.10;44.70;;;;;;1562188;74;1520;-58
2023/07/12 03:14:42;;;;;;;;;;;27.10;45.00;;;;;;1568568;74;660;-60
2023/07/12 03:16:43;;;;;;;;;;;27.10;45.00;;;;;;1555813;74;724;-57
2023/07/12 03:18:45;;;;;;;;;;;27.10;45.10;;;;;;1561756;74;1144;-57
2023/07/12 03:20:48;;;;;;;;;;;27.10;44.90;;;;;;1558897;74;723;-55
2023/07/12 03:22:50;;;;;;;;;;;27.10;44.70;;;;;;1553452;74;1923;-57
2023/07/12 03:24:51;;;;;;;;;;;27.10;45.10;;;;;;1567470;74;638;-57
2023/07/12 03:26:53;;;;;;;;;;;27.10;45.20;;;;;;1559680;74;1582;-58
2023/07/12 03:28:56;;;;;;;;;;;27.10;45.10;;;;;;1552379;74;1162;-57
2023/07/12 03:30:58;;;;;;;;;;;27.10;44.90;;;;;;1563555;74;727;-57
2023/07/12 03:33:00;;;;;;;;;;;27.10;44.90;;;;;;1558126;74;722;-55
2023/07/12 03:35:02;;;;;;;;;;;27.00;45.00;;;;;;1552998;74;743;-59
2023/07/12 03:37:04;;;;;;;;;;;27.10;45.30;;;;;;1563259;74;741;-56
2023/07/12 03:39:06;;;;;;;;;;;27.10;45.20;;;;;;1573965;74;1119;-57
2023/07/12 03:41:09;;;;;;;;;;;27.10;45.00;;;;;;1555077;74;1274;-58
2023/07/12 03:43:11;;;;;;;;;;;27.10;45.10;;;;;;1563515;74;1937;-56
2023/07/12 03:45:13;;;;;;;;;;;27.10;45.10;;;;;;1559233;74;796;-57
2023/07/12 03:47:15;;;;;;;;;;;27.10;45.20;;;;;;1565427;74;780;-57
2023/07/12 03:49:16;;;;;;;;;;;27.10;44.90;;;;;;1577124;74;1196;-60
2023/07/12 03:51:22;;;;;;;;;;;27.10;45.00;;;;;;1577420;74;735;-58
2023/07/12 03:53:22;;;;;;;;;;;27.10;45.00;;;;;;1584036;74;1454;-57
2023/07/12 03:55:24;;;;;;;;;;;27.10;45.30;;;;;;1576615;74;1551;-57
2023/07/12 03:57:26;;;;;;;;;;;27.00;45.20;;;;;;1566078;74;732;-56
2023/07/12 03:59:28;;;;;;;;;;;27.10;44.90;;;;;;1562779;74;1129;-57
2023/07/12 04:01:30;;;;;;;;;;;27.10;44.90;;;;;;1564741;74;1912;-58
2023/07/12 04:03:32;;;;;;;;;;;27.10;44.80;;;;;;1562920;74;736;-58
2023/07/12 04:05:38;;;;;;;;;;;27.10;45.10;;;;;;1570065;74;737;-58
2023/07/12 04:07:40;;;;;;;;;;;27.10;45.20;;;;;;1560335;74;1781;-58
2023/07/12 04:09:42;;;;;;;;;;;27.00;45.20;;;;;;1560511;74;1561;-57
2023/07/12 04:11:44;;;;;;;;;;;27.00;45.40;;;;;;1571702;74;742;-60
2023/07/12 04:13:46;;;;;;;;;;;27.00;45.90;;;;;;1569019;74;722;-60
2023/07/12 04:15:47;;;;;;;;;;;27.00;45.90;;;;;;1564191;74;714;-58
2023/07/12 04:20:14;;;;;;;;;;;26.90;45.20;;;;;;1626387;71;636;-78
2023/07/12 04:22:16;;;;;;;;;;;26.90;45.30;;;;;;1638272;71;1930;-78
2023/07/12 04:24:18;;;;;;;;;;;26.90;45.30;;;;;;1627735;71;1426;-78
2023/07/12 04:26:21;;;;;;;;;;;26.90;45.30;;;;;;1634139;71;779;-77
2023/07/12 04:28:23;;;;;;;;;;;26.90;45.10;;;;;;1617236;71;1208;-77
2023/07/12 04:30:25;;;;;;;;;;;27.00;45.90;;;;;;1606968;73;733;-76
2023/07/12 04:32:26;;;;;;;;;;;27.00;45.70;;;;;;1599522;73;682;-77
2023/07/12 04:34:28;;;;;;;;;;;27.00;46.00;;;;;;1612799;73;638;-76
2023/07/12 04:36:30;;;;;;;;;;;27.00;46.00;;;;;;1605852;73;733;-76
2023/07/12 04:38:33;;;;;;;;;;;27.00;46.00;;;;;;1606814;73;1670;-74
2023/07/12 04:40:34;;;;;;;;;;;26.90;46.40;;;;;;1599959;73;568;-76
2023/07/12 04:42:36;;;;;;;;;;;26.90;46.50;;;;;;1605552;73;1924;-80
2023/07/12 04:44:38;;;;;;;;;;;26.90;46.50;;;;;;1601639;73;739;-76
2023/07/12 04:46:40;;;;;;;;;;;26.90;46.30;;;;;;1607085;73;821;-77
2023/07/12 04:48:42;;;;;;;;;;;26.90;45.50;;;;;;1604628;73;1067;-79
2023/07/12 04:50:44;;;;;;;;;;;26.90;45.30;;;;;;1597389;73;687;-78
2023/07/12 04:52:46;;;;;;;;;;;27.00;46.30;;;;;;1593817;73;1545;-78
2023/07/12 04:54:48;;;;;;;;;;;27.00;46.50;;;;;;1606398;73;614;-74
2023/07/12 04:56:50;;;;;;;;;;;26.90;45.80;;;;;;1601562;73;758;-72
2023/07/12 04:58:53;;;;;;;;;;;26.90;45.90;;;;;;1605554;73;1147;-75
2023/07/12 05:00:55;;;;;;;;;;;26.90;45.50;;;;;;1601780;73;676;-75
2023/07/12 05:02:57;;;;;;;;;;;27.00;45.70;;;;;;1605194;73;1936;-78
2023/07/12 05:04:59;;;;;;;;;;;27.10;45.40;;;;;;1613267;73;751;-78
2023/07/12 05:07:01;;;;;;;;;;;27.10;45.40;;;;;;1604450;73;798;-76
2023/07/12 05:09:03;;;;;;;;;;;27.10;45.10;;;;;;1597592;73;1124;-76
2023/07/12 05:11:05;;;;;;;;;;;27.10;45.20;;;;;;1602614;73;701;-74
2023/07/12 05:13:07;;;;;;;;;;;27.20;45.90;;;;;;1585728;72;228829;-58
2023/07/12 05:15:09;;;;;;;;;;;27.10;45.70;;;;;;1577918;74;739;-60
2023/07/12 05:17:11;;;;;;;;;;;27.10;45.70;;;;;;1574020;74;709;-61
2023/07/12 05:19:13;;;;;;;;;;;27.10;45.70;;;;;;1562834;75;1611;-59
2023/07/12 05:21:15;;;;;;;;;;;27.10;45.70;;;;;;1562680;74;662;-60
2023/07/12 05:23:17;;;;;;;;;;;27.10;45.60;;;;;;1564058;74;1919;-60
2023/07/12 05:25:18;;;;;;;;;;;27.10;45.80;;;;;;1582076;74;700;-58
2023/07/12 05:27:20;;;;;;;;;;;27.10;45.70;;;;;;1576574;74;733;-59
2023/07/12 05:29:22;;;;;;;;;;;27.10;45.70;;;;;;1571538;74;1174;-59
2023/07/12 05:31:24;;;;;;;;;;;27.10;45.70;;;;;;1532825;75;688;-58
2023/07/12 05:33:26;;;;;;;;;;;27.10;45.70;;;;;;1557357;74;1550;-59
2023/07/12 05:35:28;;;;;;;;;;;27.10;45.90;;;;;;1565871;74;771;-59
2023/07/12 05:37:30;;;;;;;;;;;27.10;46.00;;;;;;1566795;74;717;-61
2023/07/12 05:39:32;;;;;;;;;;;27.10;46.00;;;;;;1565045;74;1143;-58
2023/07/12 05:41:33;;;;;;;;;;;27.00;46.20;;;;;;1569673;74;699;-59
2023/07/12 05:43:35;;;;;;;;;;;27.10;46.30;;;;;;1568260;74;1938;-59
2023/07/12 05:45:37;;;;;;;;;;;27.00;46.30;;;;;;1563118;74;632;-59
2023/07/12 05:47:42;;;;;;;;;;;27.00;46.20;;;;;;1560902;74;1339;-59
2023/07/12 05:49:43;;;;;;;;;;;27.00;46.00;;;;;;1563545;74;1771;-59
2023/07/12 05:51:45;;;;;;;;;;;27.10;45.80;;;;;;1565154;74;678;-60
2023/07/12 05:53:47;;;;;;;;;;;27.00;46.00;;;;;;1555450;74;712;-60
2023/07/12 05:55:50;;;;;;;;;;;27.00;46.20;;;;;;1560942;74;716;-59
2023/07/12 05:57:52;;;;;;;;;;;27.00;46.40;;;;;;1565177;74;1946;-60
2023/07/12 05:59:54;;;;;;;;;;;27.00;46.30;;;;;;1558317;74;1162;-59
2023/07/12 06:01:56;;;;;;;;;;;27.00;46.30;;;;;;1570696;74;1567;-61
2023/07/12 06:03:58;;;;;;;;;;;27.00;46.30;;;;;;1561021;74;1945;-59
2023/07/12 06:06:00;;;;;;;;;;;27.00;46.40;;;;;;1560431;74;667;-59
2023/07/12 06:08:02;;;;;;;;;;;27.00;46.40;;;;;;1560329;74;751;-59
2023/07/12 06:10:04;;;;;;;;;;;27.00;46.30;;;;;;1562834;74;1126;-59
2023/07/12 06:12:06;;;;;;;;;;;26.90;45.60;;;;;;1565996;74;749;-59
2023/07/12 06:14:08;;;;;;;;;;;27.00;46.40;;;;;;1552664;74;677;-59
2023/07/12 06:16:10;;;;;;;;;;;26.90;45.60;;;;;;1541434;75;1516;-59
2023/07/12 06:18:12;;;;;;;;;;;27.00;46.30;;;;;;1535285;75;756;-60
2023/07/12 06:20:14;;;;;;;;;;;26.90;45.50;;;;;;1539957;75;1104;-59
2023/07/12 06:22:16;;;;;;;;;;;27.00;46.20;;;;;;1539678;75;749;-59
2023/07/12 06:24:17;;;;;;;;;;;27.00;46.20;;;;;;1541150;75;658;-59
2023/07/12 06:26:19;;;;;;;;;;;26.90;45.40;;;;;;1542660;75;667;-60
2023/07/12 06:28:21;;;;;;;;;;;27.00;46.10;;;;;;1535744;75;1178;-60
2023/07/12 06:30:23;;;;;;;;;;;27.00;45.90;;;;;;1541214;75;1552;-59
2023/07/12 06:32:25;;;;;;;;;;;26.90;45.30;;;;;;1535773;75;682;-59
2023/07/12 06:34:27;;;;;;;;;;;26.90;45.20;;;;;;1535658;75;671;-60
2023/07/12 06:36:29;;;;;;;;;;;26.90;45.40;;;;;;1549382;75;750;-59
2023/07/12 06:38:31;;;;;;;;;;;26.90;45.40;;;;;;1538980;75;1094;-59
2023/07/12 06:40:33;;;;;;;;;;;26.90;45.50;;;;;;1547113;75;720;-59
2023/07/12 06:42:36;;;;;;;;;;;26.90;45.40;;;;;;1540282;75;1940;-59
2023/07/12 06:44:38;;;;;;;;;;;26.90;45.30;;;;;;1544007;75;1593;-58
2023/07/12 06:46:39;;;;;;;;;;;26.90;45.40;;;;;;1528269;75;726;-56
2023/07/12 06:48:41;;;;;;;;;;;26.90;45.30;;;;;;1553216;75;1123;-57
2023/07/12 06:50:43;;;;;;;;;;;26.90;45.30;;;;;;1548610;75;742;-62
2023/07/12 06:52:45;;;;;;;;;;;26.90;45.30;;;;;;1554437;75;679;-60
2023/07/12 06:54:47;;;;;;;;;;;26.90;45.30;;;;;;1541745;75;695;-59
2023/07/12 06:56:49;;;;;;;;;;;26.90;45.30;;;;;;1544464;75;741;-59
2023/07/12 06:58:51;;;;;;;;;;;26.90;45.20;;;;;;1533064;75;1562;-59
2023/07/12 07:00:53;;;;;;;;;;;26.90;45.30;;;;;;1545473;75;614;-58
2023/07/12 07:02:55;;;;;;;;;;;26.90;45.30;;;;;;1542533;75;1935;-56
2023/07/12 07:04:56;;;;;;;;;;;26.90;45.20;;;;;;1542325;75;704;-58
2023/07/12 07:06:58;;;;;;;;;;;26.90;45.30;;;;;;1551119;75;736;-58
2023/07/12 07:09:00;;;;;;;;;;;26.90;45.20;;;;;;1539927;75;1130;-57
2023/07/12 07:11:02;;;;;;;;;;;26.90;45.20;;;;;;1539724;75;756;-56
2023/07/12 07:13:04;;;;;;;;;;;26.90;45.20;;;;;;1544001;75;1545;-59
2023/07/12 07:15:06;;;;;;;;;;;26.90;45.30;;;;;;1542914;75;753;-57
2023/07/12 07:17:08;;;;;;;;;;;26.90;45.30;;;;;;1540834;75;605;-59
2023/07/12 07:19:10;;;;;;;;;;;26.90;45.20;;;;;;1547745;75;1181;-56
2023/07/12 07:21:13;;;;;;;;;;;26.90;45.20;;;;;;1541511;75;731;-57
2023/07/12 07:23:14;;;;;;;;;;;26.90;45.20;;;;;;1550761;75;1927;-56
2023/07/12 07:25:16;;;;;;;;;;;26.90;45.20;;;;;;1544315;75;716;-57
2023/07/12 07:27:19;;;;;;;;;;;26.90;45.20;;;;;;1544252;75;1516;-57
2023/07/12 07:29:21;;;;;;;;;;;26.90;45.30;;;;;;1537913;75;1127;-58
2023/07/12 07:31:22;;;;;;;;;;;26.90;45.30;;;;;;1549469;75;702;-59
2023/07/12 07:33:25;;;;;;;;;;;26.90;45.30;;;;;;1551447;75;760;-59
2023/07/12 07:35:27;;;;;;;;;;;26.90;45.30;;;;;;1543935;75;681;-59
2023/07/12 07:37:29;;;;;;;;;;;26.90;45.20;;;;;;1543425;75;740;-59
2023/07/12 07:39:31;;;;;;;;;;;26.90;45.30;;;;;;1557262;75;1139;-58
2023/07/12 07:41:33;;;;;;;;;;;26.90;45.20;;;;;;1548336;75;1655;-59
2023/07/12 07:43:36;;;;;;;;;;;26.90;45.30;;;;;;1546374;75;1923;-60
2023/07/12 07:45:37;;;;;;;;;;;26.90;45.30;;;;;;1533490;75;775;-58
2023/07/12 07:47:39;;;;;;;;;;;26.90;45.20;;;;;;1544574;75;844;-57
2023/07/12 07:49:41;;;;;;;;;;;26.90;45.20;;;;;;1546323;75;1093;-58
2023/07/12 07:51:43;;;;;;;;;;;26.90;45.20;;;;;;1533848;75;709;-59
2023/07/12 07:53:45;;;;;;;;;;;26.90;45.30;;;;;;1548378;75;719;-57
2023/07/12 07:55:47;;;;;;;;;;;26.90;45.20;;;;;;1539377;75;818;-58
2023/07/12 07:57:49;;;;;;;;;;;26.90;45.20;;;;;;1551847;75;741;-57
2023/07/12 07:59:51;;;;;;;;;;;26.90;45.20;;;;;;1557382;75;1225;-57
2023/07/12 08:01:53;;;;;;;;;;;26.90;45.30;;;;;;1540663;75;696;-57
2023/07/12 08:03:56;;;;;;;;;;;26.90;45.10;;;;;;1543936;75;1923;-58
2023/07/12 08:05:59;;;;;;;;;;;26.90;45.30;;;;;;1538472;75;651;-57
2023/07/12 08:08:01;;;;;;;;;;;26.90;45.40;;;;;;1535348;75;1885;-60
2023/07/12 08:10:03;;;;;;;;;;;26.90;45.40;;;;;;1543447;75;1120;-65
2023/07/12 08:12:07;;;;;;;;;;;26.80;45.50;;;;;;1544844;75;787;-60
2023/07/12 08:14:09;;;;;;;;;;;26.80;45.50;;;;;;1544639;75;776;-59
2023/07/12 08:16:11;;;;;;;;;;;26.80;45.60;;;;;;1549703;75;769;-56
2023/07/12 08:18:12;;;;;;;;;;;26.80;45.80;;;;;;1552935;75;698;-56
2023/07/12 08:20:14;;;;;;;;;;;26.80;46.10;;;;;;1539985;75;1118;-58
2023/07/12 08:22:17;;;;;;;;;;;26.80;46.40;;;;;;1538017;75;1321;-59
2023/07/12 08:24:19;;;;;;;;;;;26.70;46.60;;;;;;1535755;75;1949;-52
2023/07/12 08:26:21;;;;;;;;;;;26.70;46.70;;;;;;1532258;75;690;-53
2023/07/12 08:28:23;;;;;;;;;;;26.80;46.70;;;;;;1536384;75;1171;-55
2023/07/12 08:30:25;;;;;;;;;;;26.80;46.70;;;;;;1545801;75;670;-55
2023/07/12 08:32:30;;;;;;;;;;;26.90;46.80;;;;;;1546835;75;757;-53
2023/07/12 08:34:32;;;;;;;;;;;26.80;47.30;;;;;;1536641;75;667;-51
2023/07/12 08:36:34;;;;;;;;;;;26.70;47.20;;;;;;1539022;75;1323;-56
2023/07/12 08:38:36;;;;;;;;;;;26.80;47.30;;;;;;1535239;75;1046;-57
2023/07/12 08:40:39;;;;;;;;;;;26.90;46.90;;;;;;1545181;75;643;-57
2023/07/12 08:42:42;;;;;;;;;;;26.90;47.20;;;;;;1538492;75;1000;-57
2023/07/12 08:44:44;;;;;;;;;;;26.90;47.20;;;;;;1550616;75;1919;-56
2023/07/12 08:46:48;;;;;;;;;;;27.00;47.80;;;;;;1542642;76;795;-57
2023/07/12 08:48:51;;;;;;;;;;;27.00;47.30;;;;;;1545875;75;1803;-54
2023/07/12 08:50:53;;;;;;;;;;;27.10;47.00;;;;;;1546686;75;1612;-53
2023/07/12 08:52:55;;;;;;;;;;;27.10;48.00;;;;;;1547533;75;854;-56
2023/07/12 08:54:58;;;;;;;;;;;27.10;47.60;;;;;;1552634;75;761;-57
2023/07/12 08:57:19;;;;;;;;;;;27.20;47.00;;;;;;1552365;75;703;-54
2023/07/12 08:59:20;;;;;;;;;;;27.20;46.50;;;;;;1556062;75;1125;-56
2023/07/12 09:01:30;;;;;;;;;;;27.20;46.40;;;;;;1550369;75;683;-55
2023/07/12 09:03:32;;;;;;;;;;;27.20;46.50;;;;;;1550622;75;1934;-58
2023/07/12 09:05:33;;;;;;;;;;;27.30;47.00;;;;;;1537132;75;1323;-58
2023/07/12 09:07:35;;;;;;;;;;;27.30;46.50;;;;;;1541795;75;720;-58
2023/07/12 09:09:38;;;;;;;;;;;27.40;46.30;;;;;;1539936;75;1146;-55
2023/07/12 09:11:40;;;;;;;;;;;27.40;46.80;;;;;;1547420;75;716;-55
2023/07/12 09:13:42;;;;;;;;;;;27.30;46.80;;;;;;1552005;75;604;-55
2023/07/12 09:15:45;;;;;;;;;;;27.40;46.10;;;;;;1551228;75;813;-57
2023/07/12 09:17:47;;;;;;;;;;;27.40;45.70;;;;;;1553170;75;686;-53
2023/07/12 09:19:50;;;;;;;;;;;27.40;46.00;;;;;;1533070;75;1548;-59
2023/07/12 09:21:56;;;;;;;;;;;27.40;46.30;;;;;;1545359;75;626;-56
2023/07/12 09:24:03;;;;;;;;;;;27.30;46.50;;;;;;1535089;75;1932;-56
2023/07/12 09:26:07;;;;;;;;;;;27.30;46.20;;;;;;1550454;76;665;-59
2023/07/12 09:28:12;;;;;;;;;;;27.20;46.50;;;;;;1543921;75;2144;-57
2023/07/12 09:30:16;;;;;;;;;;;27.30;46.60;;;;;;1543628;75;1176;-54
2023/07/12 09:32:19;;;;;;;;;;;27.30;46.30;;;;;;1541842;75;1676;-59
2023/07/12 09:34:23;;;;;;;;;;;27.40;46.30;;;;;;1543159;75;1420;-56
2023/07/12 09:36:25;;;;;;;;;;;27.40;46.10;;;;;;1548774;75;753;-59
2023/07/12 09:38:26;;;;;;;;;;;27.40;47.10;;;;;;1546290;75;1182;-55
2023/07/12 09:40:29;;;;;;;;;;;27.30;46.60;;;;;;1552514;76;688;-60
2023/07/12 09:42:31;;;;;;;;;;;27.30;46.80;;;;;;1548099;75;841;-57
2023/07/12 09:44:33;;;;;;;;;;;27.40;46.80;;;;;;1553740;75;1946;-58
2023/07/12 09:46:39;;;;;;;;;;;27.40;46.00;;;;;;1545882;75;1550;-57
2023/07/12 09:48:59;;;;;;;;;;;27.40;46.30;;;;;;1527698;75;1092;-55
2023/07/12 09:51:05;;;;;;;;;;;27.40;46.00;;;;;;1532572;75;736;-59
2023/07/12 09:53:12;;;;;;;;;;;27.40;46.20;;;;;;1541839;75;794;-59
2023/07/12 09:55:18;;;;;;;;;;;27.50;46.10;;;;;;1528482;75;994;-56
2023/07/12 09:57:22;;;;;;;;;;;27.40;46.00;;;;;;1541746;75;1130;-57
2023/07/12 09:59:25;;;;;;;;;;;27.40;46.00;;;;;;1553643;75;1140;-58
2023/07/12 10:01:32;;;;;;;;;;;27.40;46.10;;;;;;1536471;75;1603;-58
2023/07/12 10:03:41;;;;;;;;;;;27.40;46.00;;;;;;1540812;75;763;-59
2023/07/12 10:05:45;;;;;;;;;;;27.50;45.90;;;;;;1547504;75;728;-58
2023/07/12 10:07:49;;;;;;;;;;;27.50;46.00;;;;;;1537438;75;1801;-59
2023/07/12 10:09:51;;;;;;;;;;;27.50;46.10;;;;;;1546756;75;1088;-59
2023/07/12 10:11:57;;;;;;;;;;;27.40;45.90;;;;;;1551351;75;694;-61
2023/07/12 10:13:59;;;;;;;;;;;27.50;45.90;;;;;;1537888;75;694;-58
2023/07/12 10:16:02;;;;;;;;;;;27.40;46.00;;;;;;1554387;75;1325;-57
2023/07/12 10:18:04;;;;;;;;;;;27.50;45.70;;;;;;1532806;75;725;-55
2023/07/12 10:20:06;;;;;;;;;;;27.50;45.80;;;;;;1545862;75;1127;-55
2023/07/12 10:22:15;;;;;;;;;;;27.50;46.20;;;;;;1543976;75;779;-52
2023/07/12 10:24:17;;;;;;;;;;;27.50;45.80;;;;;;1551074;75;2082;-60
2023/07/12 10:26:19;;;;;;;;;;;27.50;45.70;;;;;;1547646;75;661;-55
2023/07/12 10:28:23;;;;;;;;;;;27.50;45.80;;;;;;1535163;75;1137;-56
2023/07/12 10:30:25;;;;;;;;;;;27.40;45.90;;;;;;1544065;75;1715;-52
2023/07/12 10:32:28;;;;;;;;;;;27.50;46.10;;;;;;1540628;75;781;-51
2023/07/12 10:34:38;;;;;;;;;;;27.40;46.30;;;;;;1540431;75;790;-54
2023/07/12 10:36:40;;;;;;;;;;;27.50;46.40;;;;;;1550362;75;1693;-54
2023/07/12 10:38:42;;;;;;;;;;;27.50;46.20;;;;;;1550825;75;1194;-53
2023/07/12 10:40:46;;;;;;;;;;;27.50;46.00;;;;;;1538297;76;693;-53
2023/07/12 10:42:55;;;;;;;;;;;27.50;45.90;;;;;;1541895;75;1347;-50
2023/07/12 10:44:57;;;;;;;;;;;27.50;45.90;;;;;;1549348;75;1935;-56
2023/07/12 10:47:01;;;;;;;;;;;27.40;45.90;;;;;;1548824;75;760;-52
2023/07/12 10:49:04;;;;;;;;;;;27.40;46.00;;;;;;1542057;75;1126;-52
2023/07/12 10:51:13;;;;;;;;;;;27.40;46.10;;;;;;1537252;75;703;-54
2023/07/12 10:53:22;;;;;;;;;;;27.40;46.60;;;;;;1542921;75;1577;-53
2023/07/12 10:55:37;;;;;;;;;;;27.40;46.30;;;;;;1545749;75;674;-54
2023/07/12 10:57:40;;;;;;;;;;;27.40;46.20;;;;;;1545223;75;1532;-52
2023/07/12 10:59:43;;;;;;;;;;;27.40;46.20;;;;;;1537591;75;1153;-53
2023/07/12 11:01:47;;;;;;;;;;;27.40;46.30;;;;;;1539581;75;721;-53
2023/07/12 11:03:51;;;;;;;;;;;27.40;46.30;;;;;;1551004;75;788;-54
2023/07/12 11:05:54;;;;;;;;;;;27.40;46.50;;;;;;1549916;75;1936;-52
2023/07/12 11:07:56;;;;;;;;;;;27.40;47.10;;;;;;1553360;75;622;-51
2023/07/12 11:10:06;;;;;;;;;;;27.40;47.60;;;;;;1533712;75;1094;-52
2023/07/12 11:12:08;;;;;;;;;;;27.40;47.60;;;;;;1541655;75;1507;-52
2023/07/12 11:14:21;;;;;;;;;;;27.30;48.10;;;;;;1542719;75;666;-52
2023/07/12 11:16:23;;;;;;;;;;;27.40;47.30;;;;;;1531835;75;2034;-52
2023/07/12 11:18:25;;;;;;;;;;;27.40;47.00;;;;;;1539370;75;1138;-50
2023/07/12 11:20:35;;;;;;;;;;;27.40;47.00;;;;;;1537563;75;730;-50
2023/07/12 11:22:57;;;;;;;;;;;27.50;46.80;;;;;;1540587;75;758;-53
2023/07/12 11:25:04;;;;;;;;;;;27.50;46.80;;;;;;1498253;77;1943;-53
2023/07/12 11:27:07;;;;;;;;;;;27.50;46.80;;;;;;1489578;77;1123;-53
2023/07/12 11:29:26;;;;;;;;;;;27.50;46.70;;;;;;1498607;77;1163;-53
2023/07/12 11:31:30;;;;;;;;;;;27.50;46.80;;;;;;1550181;75;934;-54
2023/07/12 11:33:31;;;;;;;;;;;27.60;46.70;;;;;;1535929;75;1456;-51
2023/07/12 11:35:44;;;;;;;;;;;27.60;47.00;;;;;;1545836;75;695;-53
2023/07/12 11:37:47;;;;;;;;;;;27.50;46.40;;;;;;1547325;75;675;-53
2023/07/12 11:39:48;;;;;;;;;;;27.50;47.30;;;;;;1546470;75;1595;-54
2023/07/12 11:41:54;;;;;;;;;;;27.50;46.70;;;;;;1535181;75;722;-52
2023/07/12 11:43:59;;;;;;;;;;;27.50;46.90;;;;;;1550327;75;757;-53
2023/07/12 11:46:02;;;;;;;;;;;27.50;46.70;;;;;;1549732;75;1952;-54
2023/07/12 11:48:06;;;;;;;;;;;27.50;46.90;;;;;;1550136;75;687;-53
2023/07/12 11:50:10;;;;;;;;;;;27.50;46.90;;;;;;1544520;75;1136;-53
2023/07/12 11:52:12;;;;;;;;;;;27.50;46.80;;;;;;1549896;75;739;-53
2023/07/12 11:54:21;;;;;;;;;;;27.40;47.60;;;;;;1527929;75;1562;-53
2023/07/12 11:56:24;;;;;;;;;;;27.50;47.10;;;;;;1549199;75;685;-51
2023/07/12 11:58:31;;;;;;;;;;;27.50;46.80;;;;;;1551427;75;1161;-52
2023/07/12 12:00:29;;;;;;;;;;;27.50;46.70;;;;;;1538714;76;1518;-54
2023/07/12 12:02:33;;;;;;;;;;;27.50;47.20;;;;;;1544227;75;730;-54
2023/07/12 12:04:34;;;;;;;;;;;27.50;47.10;;;;;;1559984;75;1932;-53
2023/07/12 12:06:36;;;;;;;;;;;27.50;47.10;;;;;;1547463;75;743;-52
2023/07/12 12:08:38;;;;;;;;;;;27.50;47.30;;;;;;1537932;75;1322;-51
2023/07/12 12:10:45;;;;;;;;;;;27.40;47.30;;;;;;1544042;75;792;-54
2023/07/12 12:12:47;;;;;;;;;;;27.50;47.30;;;;;;1538680;75;1619;-54